Latest Weather Observations for Gunnedah Airport

IDN60801

Issued at 3:02 pm EDT Friday 24 March 2017 (issued every 30 minutes, with the page automatically refreshed every 10 minutes)

About weather observations | Map of weather stations | Latest weather observations for NSW | Other Formats
Station Details ID: 055202 Name: GUNNEDAH AIRPORT AWS Lat: -30.95 Lon: 150.25 Height: 262.57 m
Data from the previous 72 hours. | See also: Recent months at Gunnedah Airport
Date/Time
EDT
Temp
°C
App
Temp
°C
Dew
Point
°C
Rel
Hum
%
Delta-T
°C
Wind Press
QNH
hPa
Press
MSL
hPa
Rain since
9am
mm
Dir  Spd
km/h
Gust
km/h
Spd
kts
Gust
kts
24/03:00pm 21.8 21.2 18.4 81 2.1 SE 19 22 10 12 1016.5 1015.3 0.0
24/02:30pm 22.1 19.2 17.9 77 2.6 SSE 30 37 16 20 1016.9 1015.7 0.0
24/02:00pm 22.8 21.4 17.9 74 3.1 SE 22 30 12 16 1017.1 1016.0 0.0
24/01:30pm 22.9 21.4 17.8 73 3.2 SE 22 28 12 15 1017.6 1016.5 0.0
24/01:00pm 22.4 20.9 17.8 75 2.9 SSE 22 28 12 15 1017.8 1016.7 0.0
24/12:30pm 22.4 21.3 18.6 79 2.4 SSE 22 30 12 16 1018.0 1016.9 0.0
24/12:00pm 20.6 18.1 17.0 80 2.2 SSE 26 33 14 18 1018.6 1017.4 0.0
24/11:30am 20.9 19.3 17.5 81 2.1 SSE 22 32 12 17 1018.5 1017.3 0.0
24/11:00am 20.8 19.2 17.4 81 2.1 SSE 22 32 12 17 1018.5 1017.3 0.0
24/10:30am 20.6 19.0 17.4 82 2.0 SSE 22 30 12 16 1018.4 1017.2 0.0
24/10:00am 20.0 17.6 17.4 85 1.6 SSE 26 32 14 17 1018.0 1016.9 0.0
24/09:30am 19.2 17.2 17.3 89 1.2 SSE 24 32 13 17 1017.9 1016.8 0.0
24/09:00am 19.3 17.1 16.9 86 1.5 SSE 24 32 13 17 1017.7 1016.6 0.2
24/08:30am 20.1 17.8 16.7 81 2.1 SSE 24 33 13 18 1017.2 1016.1 0.2
24/08:00am 20.5 18.8 17.1 81 2.1 SSE 22 28 12 15 1016.8 1015.6 0.2
24/07:30am 20.6 18.9 17.2 81 2.1 SSE 22 32 12 17 1016.5 1015.3 0.2
24/07:00am 21.0 19.4 17.4 80 2.2 SSE 22 30 12 16 1016.0 1014.8 0.2
24/06:30am 21.5 21.3 17.5 78 2.5 SSE 15 20 8 11 1015.7 1014.5 0.2
24/06:00am 21.3 20.7 17.5 79 2.4 SSE 17 20 9 11 1015.2 1014.0 0.2
24/05:30am 21.2 20.1 17.4 79 2.4 SSE 19 26 10 14 1015.1 1013.9 0.2
24/05:00am 21.0 20.2 17.2 79 2.4 SE 17 22 9 12 1014.8 1013.6 0.2
24/04:30am 21.5 21.0 17.7 79 2.4 SSE 17 22 9 12 1014.7 1013.5 0.2
24/04:00am 20.6 20.8 17.6 83 1.9 SSE 13 17 7 9 1014.8 1013.6 0.2
24/03:30am 20.1 19.0 17.3 84 1.7 SE 19 24 10 13 1014.1 1013.0 0.2
24/03:00am 20.2 19.5 17.4 84 1.7 SE 17 20 9 11 1014.6 1013.4 0.2
24/02:30am 20.3 19.7 17.5 84 1.7 SE 17 20 9 11 1014.7 1013.5 0.2
24/02:00am 20.5 20.0 17.7 84 1.7 SSE 17 22 9 12 1015.1 1013.9 0.2
24/01:30am 20.5 20.3 17.7 84 1.7 SE 15 20 8 11 1014.8 1013.6 0.2
24/01:00am 20.6 20.0 17.6 83 1.9 SE 17 20 9 11 1015.2 1014.0 0.2
24/12:30am 20.9 21.0 17.5 81 2.1 SE 13 19 7 10 1015.4 1014.2 0.2
24/12:00am 21.4 21.3 17.8 80 2.3 SE 15 20 8 11 1015.5 1014.3 0.2
 
Date/Time
EDT
Temp
°C
App
Temp
°C
Dew
Point
°C
Rel
Hum
%
Delta-T
°C
Wind Press
QNH
hPa
Press
MSL
hPa
Rain since
9am
mm
Dir  Spd
km/h
Gust
km/h
Spd
kts
Gust
kts
23/11:30pm 21.7 21.6 17.9 79 2.4 SE 15 19 8 10 1016.0 1014.8 0.2
23/11:00pm 21.7 21.2 17.9 79 2.4 SE 17 24 9 13 1016.0 1014.8 0.2
23/10:30pm 21.5 21.3 17.7 79 2.4 SSE 15 20 8 11 1015.8 1014.6 0.2
23/10:00pm 22.0 21.6 18.0 78 2.5 SE 17 20 9 11 1015.7 1014.5 0.2
23/09:30pm 22.5 21.6 18.1 76 2.8 SSE 20 26 11 14 1015.7 1014.5 0.2
23/09:00pm 23.1 21.9 18.4 75 3.0 SE 22 28 12 15 1015.5 1014.3 0.2
23/08:30pm 23.9 23.3 18.5 72 3.4 SSE 19 22 10 12 1015.6 1014.4 0.2
23/08:00pm 24.4 23.7 18.6 70 3.7 SSE 20 26 11 14 1015.0 1013.8 0.2
23/07:30pm 24.8 24.4 19.0 70 3.7 SSE 19 24 10 13 1014.6 1013.4 0.2
23/07:00pm 26.3 27.2 18.4 61 5.1 ESE 11 15 6 8 1014.0 1012.9 0.2
23/06:30pm 27.9 28.4 18.3 56 6.2 ESE 13 17 7 9 1013.9 1012.8 0.2
23/06:00pm 28.8 29.3 18.3 53 6.8 ESE 13 20 7 11 1013.8 1012.7 0.2
23/05:30pm 29.6 30.5 18.4 51 7.3 SE 11 17 6 9 1013.8 1012.7 0.2
23/05:00pm 29.5 30.1 18.6 52 7.1 ESE 13 17 7 9 1013.9 1012.8 0.2
23/04:30pm 28.6 28.7 17.5 51 7.1 SE 13 19 7 10 1014.1 1013.0 0.2
23/04:00pm 29.6 31.3 18.4 51 7.3 ESE 7 15 4 8 1014.3 1013.1 0.2
23/03:30pm 29.1 30.7 18.2 51 7.0 SE 7 15 4 8 1014.6 1013.4 0.2
23/03:00pm 29.2 30.7 18.0 51 7.2 SE 7 15 4 8 1014.8 1013.6 0.2
23/02:30pm 28.5 29.7 18.3 54 6.6 SSE 9 19 5 10 1015.4 1014.2 0.2
23/02:00pm 27.8 29.5 18.5 57 6.0 ENE 7 11 4 6 1016.0 1014.8 0.2
23/01:30pm 26.8 27.6 18.1 59 5.6 SE 11 15 6 8 1016.3 1015.1 0.2
23/01:00pm 28.1 29.2 18.8 57 6.0 SE 11 19 6 10 1016.8 1015.6 0.2
23/12:30pm 27.0 28.7 19.4 63 5.0 SE 9 15 5 8 1017.2 1016.1 0.2
23/12:00pm 26.4 27.3 19.3 65 4.6 ESE 13 17 7 9 1017.5 1016.4 0.2
23/11:30am 24.8 26.3 19.8 74 3.3 SSE 11 17 6 9 1017.8 1016.7 0.0
23/11:00am 23.0 23.9 20.1 84 1.9 SSE 15 19 8 10 1018.1 1017.0 0.0
23/10:30am 22.4 23.6 19.9 86 1.6 SE 13 17 7 9 1018.3 1017.1 0.0
23/10:00am 21.2 22.7 19.8 92 0.9 ESE 11 15 6 8 1018.0 1016.9 0.0
23/09:30am 20.7 21.7 19.5 93 0.8 ESE 13 17 7 9 1017.7 1016.6 0.0
23/09:00am 20.4 22.5 19.4 94 0.6 ESE 7 11 4 6 1017.6 1016.5 12.2
23/08:30am 19.6 21.0 18.6 94 0.6 SE 9 11 5 6 1017.3 1016.2 12.2
23/08:00am 19.2 19.6 18.2 94 0.6 SE 13 19 7 10 1016.8 1015.6 12.2
23/07:30am 18.9 19.2 17.9 94 0.6 SE 13 17 7 9 1016.4 1015.2 12.2
23/07:00am 18.8 19.0 17.6 93 0.7 SE 13 15 7 8 1016.0 1014.8 12.2
23/06:30am 18.5 19.3 17.2 92 0.8 ESE 9 13 5 7 1015.9 1014.7 12.2
23/06:00am 18.8 19.7 17.5 92 0.8 SE 9 11 5 6 1015.7 1014.5 12.2
23/05:30am 19.0 20.0 17.7 92 0.8 SE 9 11 5 6 1015.5 1014.3 12.2
23/05:00am 19.3 20.4 18.0 92 0.8 SSE 9 11 5 6 1015.4 1014.2 12.2
23/04:30am 18.9 19.1 17.6 92 0.8 SSE 13 15 7 8 1015.3 1014.1 12.2
23/04:00am 19.3 19.6 17.8 91 0.9 ESE 13 17 7 9 1015.4 1014.2 12.2
23/03:30am 19.3 20.2 17.6 90 1.1 SE 9 13 5 7 1015.6 1014.4 12.2
23/03:00am 19.7 20.1 18.2 91 0.9 SE 13 17 7 9 1015.7 1014.5 12.2
23/02:30am 20.0 20.6 18.7 92 0.8 SSE 13 19 7 10 1015.8 1014.6 12.2
23/02:00am 19.6 20.5 18.4 93 0.8 SSE 11 15 6 8 1015.8 1014.6 12.2
23/01:30am 19.5 21.0 18.0 91 0.9 E 7 11 4 6 1015.4 1014.2 12.2
23/01:00am 19.7 21.5 18.4 92 0.8 SSW 6 13 3 7 1015.8 1014.6 12.2
23/12:30am 20.0 22.4 18.7 92 0.8 N 4 7 2 4 1016.0 1014.8 12.2
23/12:00am 19.6 21.4 18.3 92 0.8 S 6 9 3 5 1016.4 1015.2 12.2
 
Date/Time
EDT
Temp
°C
App
Temp
°C
Dew
Point
°C
Rel
Hum
%
Delta-T
°C
Wind Press
QNH
hPa
Press
MSL
hPa
Rain since
9am
mm
Dir  Spd
km/h
Gust
km/h
Spd
kts
Gust
kts
22/11:30pm 19.9 21.6 18.6 92 0.8 SE 7 11 4 6 1016.2 1015.0 12.2
22/11:00pm 19.9 20.1 18.6 92 0.8 SE 15 20 8 11 1016.4 1015.2 12.2
22/10:30pm 20.0 20.3 18.7 92 0.8 ENE 15 19 8 10 1016.3 1015.1 12.2
22/10:00pm 19.8 20.7 18.5 92 0.8 SE 11 17 6 9 1016.0 1014.8 12.2
22/09:30pm 19.4 19.8 18.1 92 0.8 SE 13 17 7 9 1016.1 1014.9 11.0
22/09:00pm 19.6 19.1 17.7 89 1.2 SE 17 20 9 11 1016.1 1014.9 10.0
22/08:30pm 20.2 19.3 18.3 89 1.2 SE 20 24 11 13 1015.8 1014.6 10.0
22/08:00pm 21.6 18.8 18.2 81 2.1 SSE 30 43 16 23 1015.6 1014.4 9.4
22/07:54pm 21.8 19.6 18.6 82 2.0 S 28 43 15 23 1015.7 1014.5 9.4
22/07:30pm 22.1 23.3 20.6 91 1.0 S 15 20 8 11 1014.7 1013.5 9.4
22/07:00pm 22.3 23.7 20.4 89 1.2 ESE 13 17 7 9 1013.7 1012.6 9.4
22/06:30pm 22.8 25.5 20.7 88 1.4 SE 7 13 4 7 1013.7 1012.6 6.2
22/06:00pm 23.2 24.8 20.7 86 1.6 ENE 13 22 7 12 1013.1 1011.9 5.8
22/05:30pm 23.3 23.8 21.2 88 1.4 ENE 20 28 11 15 1013.2 1012.0 2.8
22/05:00pm 24.8 25.2 20.7 78 2.7 NE 19 24 10 13 1013.0 1011.8 0.6
22/04:30pm 25.5 26.8 21.6 79 2.6 NE 17 24 9 13 1013.0 1011.8 0.6
22/04:00pm 24.6 26.1 21.3 82 2.2 NE 15 22 8 12 1013.3 1012.1 0.6
22/03:30pm 24.3 26.8 21.8 86 1.7 NNE 11 17 6 9 1013.5 1012.3 0.6
22/03:00pm 25.1 24.6 19.2 70 3.8 NNW 20 33 11 18 1013.7 1012.6 0.2
22/02:30pm 28.0 29.0 19.5 60 5.6 NNW 13 20 7 11 1013.8 1012.7 0.2
22/02:00pm 27.5 28.6 19.6 62 5.2 N 13 19 7 10 1014.3 1013.1 0.2
22/01:30pm 27.8 28.9 20.4 64 4.9 NNW 15 20 8 11 1014.8 1013.6 0.2
22/01:00pm 26.6 27.5 20.0 67 4.3 NNW 15 20 8 11 1015.3 1014.1 0.2
22/12:30pm 26.2 26.9 18.9 64 4.7 NW 13 20 7 11 1015.8 1014.6 0.2
22/12:00pm 26.0 27.4 18.7 64 4.7 NW 9 11 5 6 1016.1 1014.9 0.2
22/11:30am 26.0 28.5 19.9 69 4.0 WNW 6 9 3 5 1016.4 1015.2 0.2
22/11:00am 24.9 27.6 19.5 72 3.5 W 4 7 2 4 1016.5 1015.3 0.0
22/10:30am 24.2 27.8 19.7 76 2.9 CALM 0 0 0 0 1016.5 1015.3 0.0
22/10:00am 23.7 27.4 20.0 80 2.4 CALM 0 0 0 0 1016.5 1015.3 0.0
22/09:30am 23.2 25.8 20.0 82 2.1 SSW 6 7 3 4 1016.5 1015.3 0.0
22/09:00am 22.8 25.4 20.1 85 1.8 SSE 6 7 3 4 1016.2 1015.0 6.0
22/08:30am 22.3 24.9 20.0 87 1.5 ESE 6 7 3 4 1015.9 1014.7 6.0
22/08:00am 21.9 24.5 20.4 91 1.0 SE 7 9 4 5 1015.6 1014.4 6.0
22/07:30am 21.4 23.9 19.9 91 1.0 S 6 6 3 3 1015.2 1014.0 5.8
22/07:00am 21.3 23.7 19.6 90 1.1 SSE 6 7 3 4 1014.9 1013.7 5.8
22/06:30am 21.2 23.4 19.7 91 1.0 SE 7 9 4 5 1014.6 1013.4 5.8
22/06:00am 21.1 23.5 19.7 92 0.9 SSE 6 7 3 4 1014.4 1013.2 5.8
22/05:30am 20.8 22.6 19.5 92 0.8 S 9 9 5 5 1014.3 1013.1 5.8
22/05:00am 20.6 22.3 19.3 92 0.8 S 9 11 5 6 1014.1 1013.0 5.8
22/04:30am 20.6 22.6 19.1 91 1.0 S 7 7 4 4 1013.9 1012.8 5.8
22/04:00am 20.8 22.9 19.3 91 1.0 SSE 7 13 4 7 1013.9 1012.8 5.8
22/03:30am 21.2 23.3 19.3 89 1.2 SE 7 9 4 5 1014.0 1012.9 5.8
22/03:00am 21.5 23.4 19.8 90 1.1 SSE 9 9 5 5 1014.7 1013.5 5.8
22/02:30am 21.3 22.8 19.8 91 1.0 S 11 15 6 8 1014.8 1013.6 5.8
22/02:00am 21.3 23.5 19.6 90 1.1 SSE 7 9 4 5 1014.7 1013.5 5.8
22/01:30am 21.5 23.8 19.8 90 1.1 SSE 7 9 4 5 1014.9 1013.7 5.8
22/01:00am 21.6 23.9 19.9 90 1.1 ESE 7 7 4 4 1014.9 1013.7 5.8
22/12:30am 21.7 24.2 19.8 89 1.2 SE 6 7 3 4 1015.2 1014.0 5.8
22/12:00am 21.9 24.8 19.8 88 1.4 E 4 6 2 3 1015.4 1014.2 5.8
 
Date/Time
EDT
Temp
°C
App
Temp
°C
Dew
Point
°C
Rel
Hum
%
Delta-T
°C
Wind Press
QNH
hPa
Press
MSL
hPa
Rain since
9am
mm
Dir  Spd
km/h
Gust
km/h
Spd
kts
Gust
kts
21/11:30pm 22.4 24.2 20.3 88 1.4 E 11 13 6 7 1015.6 1014.4 5.8
21/11:00pm 22.4 23.9 20.5 89 1.2 ESE 13 17 7 9 1015.7 1014.5 5.8
21/10:30pm 22.3 23.8 20.6 90 1.1 SE 13 17 7 9 1016.0 1014.8 5.8
21/10:00pm 22.5 22.9 20.6 89 1.2 ESE 19 24 10 13 1015.9 1014.7 5.6
21/09:30pm 22.8 23.2 20.7 88 1.4 E 19 24 10 13 1015.6 1014.4 4.4
21/09:00pm 22.7 23.2 20.8 89 1.2 ESE 19 26 10 14 1015.3 1014.1 3.8
21/08:30pm 23.9 26.1 21.2 85 1.8 ENE 11 17 6 9 1014.8 1013.6 0.2
21/08:00pm 23.9 24.8 20.8 83 2.0 E 17 28 9 15 1014.3 1013.1 0.2
21/07:30pm 24.2 23.7 19.9 77 2.8 E 22 32 12 17 1013.2 1012.0 0.2
21/07:00pm 26.7 24.5 18.6 61 5.2 NNE 28 43 15 23 1013.0 1011.8 0.2
21/06:53pm 27.6 26.7 17.7 54 6.3 NNW 19 43 10 23 1013.0 1011.8 0.2
21/06:30pm 30.6 30.1 17.0 44 8.7 WNW 15 20 8 11 1012.6 1011.4 0.2
21/06:00pm 31.3 30.5 17.2 42 9.0 NW 17 22 9 12 1012.4 1011.2 0.2
21/05:30pm 31.8 31.1 17.3 42 9.3 NNW 17 26 9 14 1012.1 1010.9 0.2
21/05:00pm 31.9 31.4 17.8 43 9.1 NNW 17 24 9 13 1012.1 1010.9 0.2
21/04:30pm 31.7 30.6 17.2 42 9.3 NW 19 30 10 16 1012.3 1011.1 0.2
21/04:00pm 32.8 33.0 18.6 43 9.3 NNW 15 24 8 13 1012.5 1011.3 0.2
21/03:30pm 31.0 30.7 17.3 43 8.8 NW 15 26 8 14 1012.8 1011.6 0.2

Other Formats:

Comma delimited format used in spreadsheet applications
http://www.bom.gov.au/fwo/IDN60801/IDN60801.95740.axf

JavaScript Object Notation format (JSON) in row-major order
http://www.bom.gov.au/fwo/IDN60801/IDN60801.95740.json